Nearby METAR Reports

 

KPMD - Palmdale, California, USA
Distance from station: NNE 12mi, 19km
Updated: Mon, 05-Dec-2022 9:53am PST
Clear
Clear
 Wind from W
Wind: W 22 mph , 35 km/h
Temperature: 54°F , 12°C
Dew Point: 37°F , 3°C
Humidity: 54%
Barometer: 30.04 inHg , 1017.3 hPa
Clouds: Clear
Visibility: 10 miles , 16 km
2022/12/05 17:53 KPMD 051753Z 26019KT 10SM CLR 12/03 A3004 RMK AO2 SLP167 T01170028 10117 20083 53005
KWJF - Lancaster/Fox, California, USA
Distance from station: N 17mi, 27km
Updated: Mon, 05-Dec-2022 9:56am PST
Few Clouds
Few Clouds
 Wind from SW
Wind: SW 17 mph , 28 km/h
Temperature: 54°F , 12°C
Dew Point: 36°F , 2°C
Humidity: 51%
Barometer: 30.05 inHg , 1017.6 hPa
Clouds: Few Clouds
Visibility: 10 miles , 16 km
Cloud details: Few Clouds 4500 ft
2022/12/05 17:56 KWJF 051756Z 23015KT 10SM FEW045 12/02 A3005 RMK AO2 SLP176 T01170017 10122 20083 53005
 
KMWS - Mount Wilson, California, USA
Distance from station: SSE 18mi, 30km
Updated: Wed, 13-May-2015 6:45am PDT
NOT Current

 Wind from S
Wind: S 3 mph , 6 km/h, Gust: 5 mph , 7 km/h
Temperature: 43°F , 6°C
Dew Point: -0°F , -18°C
Humidity: 16%
2015/05/13 13:45 KMWS 131345Z 18003G04KT 06/M18 RMK SNOW DEPTH 1.00
KWHP - La / Whiteman, California, USA
Distance from station: SW 21mi, 34km
Updated: Mon, 05-Dec-2022 9:50am PST

 Wind from S
Wind: S 6 mph , 9 km/h
Visibility: 10 miles , 16 km
2022/12/05 17:50 KWHP 051750Z 18005KT 10SM FEW 014 FEW020 15/08 A3010 RMK OBSERVER HT
 
KBUR - Burbank, California, USA
Distance from station: SSW 22mi, 35km
Updated: Mon, 05-Dec-2022 9:53am PST
Partly cloudy
Partly cloudy
 Wind from calm
Wind: Calm
Temperature: 57°F , 14°C
Dew Point: 48°F , 9°C
Humidity: 72%
Barometer: 30.07 inHg , 1018.3 hPa
Clouds: Partly cloudy
Visibility: 10 miles , 16 km
Cloud details: Partly cloudy 1500 ft
2022/12/05 17:53 KBUR 051753Z 00000KT 10SM SCT015 14/09 A3007 RMK AO2 SLP176 T01390094 10139 20111 53008
KVNY - Van Nuys, California, USA
Distance from station: SW 25mi, 40km
Updated: Mon, 05-Dec-2022 9:51am PST
Few Clouds
Few Clouds
 Wind from W
Wind: W 6 mph , 9 km/h
Temperature: 57°F , 14°C
Dew Point: 50°F , 10°C
Humidity: 77%
Barometer: 30.07 inHg , 1018.3 hPa
Clouds: Few Clouds
Visibility: 10 miles , 16 km
Cloud details: Few Clouds 1400 ft
2022/12/05 17:51 KVNY 051751Z 28005KT 10SM FEW014 14/10 A3007 RMK AO2 SLP178 T01390100 10144 20111 53007
 
KEDW - Edwards Afb, California, USA
Distance from station: NNE 33mi, 53km
Updated: Mon, 05-Dec-2022 10:23am PST
Mostly cloudy
Mostly cloudy
 Wind from SW
Wind: SW 22 mph , 35 km/h, Gust: 29 mph , 46 km/h
Temperature: 55°F , 13°C
Dew Point: 36°F , 2°C
Humidity: 47%
Barometer: 30.00 inHg , 1015.9 hPa
Clouds: Mostly cloudy
Visibility: 50 miles , 80 km
Cloud details: Few Clouds 3000 ft
Partly cloudy 4500 ft
Mostly cloudy 20000 ft
2022/12/05 18:23 KEDW 051823Z 23019G25KT 50SM FEW030 SCT045 BKN200 13/02 A3000 RMK AO2A
KSMO - Santa Monica, California, USA
Distance from station: SSW 35mi, 57km
Updated: Mon, 05-Dec-2022 9:51am PST
Clear
Clear
 Wind from WSW
Wind: WSW 6 mph , 9 km/h
Temperature: 57°F , 14°C
Dew Point: 48°F , 9°C
Humidity: 72%
Barometer: 30.08 inHg , 1018.6 hPa
Clouds: Clear
Visibility: 10 miles , 16 km
2022/12/05 17:51 KSMO 051751Z 25005KT 10SM CLR 14/09 A3008 RMK AO2 SLP186 T01440089 10144 20111 53010
 
KLAX - Los Angeles, California, USA
Distance from station: SSW 39mi, 63km
Updated: Mon, 05-Dec-2022 9:53am PST
Mostly cloudy
Mostly cloudy
 Wind from W
Wind: W 10 mph , 17 km/h
Temperature: 59°F , 15°C
Dew Point: 50°F , 10°C
Humidity: 72%
Barometer: 30.08 inHg , 1018.6 hPa
Clouds: Mostly cloudy
Visibility: 9 miles , 14 km
Cloud details: Few Clouds 1000 ft
Partly cloudy 2300 ft
Mostly cloudy 14000 ft
Mostly cloudy 18000 ft
2022/12/05 17:53 KLAX 051753Z 27009KT 9SM FEW010 SCT023 BKN140 BKN180 15/10 A3008 RMK AO2 SLP186 T01500100 10150 20139 53011 $
KMHV - Mojave, California, USA
Distance from station: N 41mi, 66km
Updated: Mon, 05-Dec-2022 10:40am PST
Clear
Clear
 Wind from W
Wind: W 23 mph , 37 km/h
Temperature: 52°F , 11°C
Dew Point: 39°F , 4°C
Humidity: 62%
Barometer: 30.01 inHg , 1016.3 hPa
Clouds: Clear
Visibility: 10 miles , 16 km
2022/12/05 18:40 KMHV 051840Z AUTO 27020KT 10SM CLR 11/04 A3001 RMK A01
 
KFUL - Fullerton, California, USA
Distance from station: SSE 44mi, 70km
Updated: Mon, 05-Dec-2022 9:53am PST
Mostly cloudy
Mostly cloudy
 Wind from varies
Wind: varies 5 mph , 7 km/h
Temperature: 59°F , 15°C
Dew Point: 52°F , 11°C
Humidity: 77%
Barometer: 30.08 inHg , 1018.6 hPa
Clouds: Mostly cloudy
Visibility: 10 miles , 16 km
Cloud details: Partly cloudy 1800 ft
Mostly cloudy 25000 ft
2022/12/05 17:53 KFUL 051753Z VRB04KT 10SM SCT018 BKN250 15/11 A3008 RMK AO2 SLP183 T01500111 10156 20117 51008
KONT - Ontario, California, USA
Distance from station: SE 45mi, 72km
Updated: Mon, 05-Dec-2022 10:37am PST
Mostly cloudy
Mostly cloudy
 Wind from W
Wind: W 10 mph , 17 km/h
Temperature: 61°F , 16°C
Dew Point: 48°F , 9°C
Humidity: 63%
Barometer: 30.05 inHg , 1017.6 hPa
Clouds: Mostly cloudy
Visibility: 9 miles , 14 km
Cloud details: Mostly cloudy 2300 ft
Mostly cloudy 4700 ft
Mostly cloudy 15000 ft
2022/12/05 18:37 KONT 051837Z 26009KT 9SM BKN023 BKN047 BKN150 16/09 A3005 RMK AO2 T01560094
 
KLGB - Long Beach, California, USA
Distance from station: S 46mi, 74km
Updated: Mon, 05-Dec-2022 9:53am PST
Mostly cloudy
Mostly cloudy
 Wind from WNW
Wind: WNW 3 mph , 6 km/h
Temperature: 61°F , 16°C
Dew Point: 50°F , 10°C
Humidity: 68%
Barometer: 30.08 inHg , 1018.6 hPa
Clouds: Mostly cloudy
Visibility: 10 miles , 16 km
Cloud details: Mostly cloudy 2000 ft
2022/12/05 17:53 KLGB 051753Z 30003KT 10SM BKN020 16/10 A3008 RMK AO2 SLP185 T01610100 10167 20122 53008 $
KVCV - Victorville, California, USA
Distance from station: E 46mi, 74km
Updated: Mon, 05-Dec-2022 10:35am PST
Few Clouds
Few Clouds
 Wind from W
Wind: W 13 mph , 20 km/h
Temperature: 52°F , 11°C
Dew Point: 39°F , 4°C
Humidity: 62%
Barometer: 30.06 inHg , 1017.9 hPa
Clouds: Few Clouds
Visibility: 10 miles , 16 km
Cloud details: Few Clouds 3000 ft
2022/12/05 18:35 KVCV 051835Z AUTO 26011KT 10SM FEW030 11/04 A3006 RMK AO2
 
KTSP - Tehachapi, California, USA
Distance from station: NNW 48mi, 77km
Updated: Mon, 05-Dec-2022 10:35am PST
Mist, Overcast
Mist, Overcast
 Wind from NW
Wind: NW 15 mph , 24 km/h
Temperature: 43°F , 6°C
Wind Chill: 36°F , 2°C
Dew Point: 43°F , 6°C
Humidity: 100%
Barometer: 30.05 inHg , 1017.6 hPa
Summary: Mist
Clouds: Overcast
Visibility: 1 3/4 miles , 2.8 km
Cloud details: Mostly cloudy 400 ft
Mostly cloudy 800 ft
Overcast 1900 ft
2022/12/05 18:35 KTSP 051835Z AUTO 32013KT 1 3/4SM UP BR BKN004 BKN008 OVC019 06/06 A3005 RMK AO2